sensor_id;sensor_type;location;lat;lon;timestamp;P1;durP1;ratioP1;P2;durP2;ratioP2
36629;SDS011;36256;42.154;23.002;2023-05-07T00:00:20;9.77;;;6.47;;
36629;SDS011;36256;42.154;23.002;2023-05-07T00:02:47;11.43;;;7.18;;
36629;SDS011;36256;42.154;23.002;2023-05-07T00:05:14;12.20;;;7.40;;
36629;SDS011;36256;42.154;23.002;2023-05-07T00:07:41;10.15;;;7.28;;
36629;SDS011;36256;42.154;23.002;2023-05-07T00:10:09;8.43;;;7.10;;
36629;SDS011;36256;42.154;23.002;2023-05-07T00:12:37;10.27;;;5.75;;
36629;SDS011;36256;42.154;23.002;2023-05-07T00:15:04;9.80;;;6.00;;
36629;SDS011;36256;42.154;23.002;2023-05-07T00:17:32;6.70;;;5.68;;
36629;SDS011;36256;42.154;23.002;2023-05-07T00:19:59;7.75;;;5.40;;
36629;SDS011;36256;42.154;23.002;2023-05-07T00:22:26;10.63;;;6.47;;
36629;SDS011;36256;42.154;23.002;2023-05-07T00:24:52;13.90;;;6.78;;
36629;SDS011;36256;42.154;23.002;2023-05-07T00:27:19;13.80;;;8.75;;
36629;SDS011;36256;42.154;23.002;2023-05-07T00:29:46;10.20;;;7.40;;
36629;SDS011;36256;42.154;23.002;2023-05-07T00:32:12;11.10;;;6.70;;
36629;SDS011;36256;42.154;23.002;2023-05-07T00:34:39;9.50;;;6.53;;
36629;SDS011;36256;42.154;23.002;2023-05-07T00:37:06;10.10;;;7.13;;
36629;SDS011;36256;42.154;23.002;2023-05-07T00:39:36;11.25;;;6.93;;
36629;SDS011;36256;42.154;23.002;2023-05-07T00:42:02;10.83;;;6.60;;
36629;SDS011;36256;42.154;23.002;2023-05-07T00:44:29;10.93;;;6.82;;
36629;SDS011;36256;42.154;23.002;2023-05-07T00:46:58;16.67;;;11.20;;
36629;SDS011;36256;42.154;23.002;2023-05-07T00:49:38;14.05;;;9.15;;
36629;SDS011;36256;42.154;23.002;2023-05-07T00:52:07;13.10;;;8.27;;
36629;SDS011;36256;42.154;23.002;2023-05-07T00:54:37;17.65;;;8.63;;
36629;SDS011;36256;42.154;23.002;2023-05-07T00:57:06;15.80;;;8.73;;
36629;SDS011;36256;42.154;23.002;2023-05-07T00:59:32;13.35;;;9.25;;
36629;SDS011;36256;42.154;23.002;2023-05-07T01:01:59;9.10;;;6.97;;
36629;SDS011;36256;42.154;23.002;2023-05-07T01:04:26;12.05;;;7.40;;
36629;SDS011;36256;42.154;23.002;2023-05-07T01:09:26;9.27;;;6.82;;
36629;SDS011;36256;42.154;23.002;2023-05-07T01:11:53;9.23;;;6.80;;
36629;SDS011;36256;42.154;23.002;2023-05-07T01:14:23;15.63;;;8.13;;
36629;SDS011;36256;42.154;23.002;2023-05-07T01:16:52;16.35;;;9.82;;
36629;SDS011;36256;42.154;23.002;2023-05-07T01:19:20;15.05;;;8.55;;
36629;SDS011;36256;42.154;23.002;2023-05-07T01:21:47;13.95;;;9.00;;
36629;SDS011;36256;42.154;23.002;2023-05-07T01:24:14;16.65;;;8.60;;
36629;SDS011;36256;42.154;23.002;2023-05-07T01:26:42;14.85;;;8.73;;
36629;SDS011;36256;42.154;23.002;2023-05-07T01:29:10;12.93;;;7.55;;
36629;SDS011;36256;42.154;23.002;2023-05-07T01:31:37;8.02;;;6.50;;
36629;SDS011;36256;42.154;23.002;2023-05-07T01:34:06;9.50;;;5.80;;
36629;SDS011;36256;42.154;23.002;2023-05-07T01:36:36;8.95;;;6.15;;
36629;SDS011;36256;42.154;23.002;2023-05-07T01:39:05;7.93;;;6.38;;
36629;SDS011;36256;42.154;23.002;2023-05-07T01:41:32;13.20;;;6.13;;
36629;SDS011;36256;42.154;23.002;2023-05-07T01:43:59;11.68;;;6.50;;
36629;SDS011;36256;42.154;23.002;2023-05-07T01:46:27;7.75;;;6.00;;
36629;SDS011;36256;42.154;23.002;2023-05-07T01:48:55;10.27;;;6.55;;
36629;SDS011;36256;42.154;23.002;2023-05-07T01:51:21;9.85;;;6.93;;
36629;SDS011;36256;42.154;23.002;2023-05-07T01:53:49;8.73;;;6.55;;
36629;SDS011;36256;42.154;23.002;2023-05-07T01:56:18;10.50;;;6.50;;
36629;SDS011;36256;42.154;23.002;2023-05-07T01:58:46;9.45;;;6.85;;
36629;SDS011;36256;42.154;23.002;2023-05-07T02:01:13;9.40;;;7.43;;
36629;SDS011;36256;42.154;23.002;2023-05-07T02:03:40;11.00;;;8.32;;
36629;SDS011;36256;42.154;23.002;2023-05-07T02:06:08;10.55;;;7.75;;
36629;SDS011;36256;42.154;23.002;2023-05-07T02:08:34;12.65;;;7.93;;
36629;SDS011;36256;42.154;23.002;2023-05-07T02:11:01;10.55;;;7.22;;
36629;SDS011;36256;42.154;23.002;2023-05-07T02:13:29;12.57;;;7.30;;
36629;SDS011;36256;42.154;23.002;2023-05-07T02:15:58;11.05;;;7.10;;
36629;SDS011;36256;42.154;23.002;2023-05-07T02:18:24;9.40;;;6.85;;
36629;SDS011;36256;42.154;23.002;2023-05-07T02:20:51;10.02;;;6.75;;
36629;SDS011;36256;42.154;23.002;2023-05-07T02:23:18;8.65;;;6.90;;
36629;SDS011;36256;42.154;23.002;2023-05-07T02:25:45;10.75;;;6.57;;
36629;SDS011;36256;42.154;23.002;2023-05-07T02:28:12;8.98;;;7.13;;
36629;SDS011;36256;42.154;23.002;2023-05-07T02:30:39;11.05;;;6.95;;
36629;SDS011;36256;42.154;23.002;2023-05-07T02:33:06;11.82;;;6.47;;
36629;SDS011;36256;42.154;23.002;2023-05-07T02:35:34;8.90;;;6.93;;
36629;SDS011;36256;42.154;23.002;2023-05-07T02:38:01;8.88;;;6.65;;
36629;SDS011;36256;42.154;23.002;2023-05-07T02:40:28;9.88;;;6.97;;
36629;SDS011;36256;42.154;23.002;2023-05-07T02:42:55;8.70;;;6.85;;
36629;SDS011;36256;42.154;23.002;2023-05-07T02:45:21;7.03;;;6.28;;
36629;SDS011;36256;42.154;23.002;2023-05-07T02:47:48;9.57;;;6.47;;
36629;SDS011;36256;42.154;23.002;2023-05-07T02:50:15;8.30;;;7.07;;
36629;SDS011;36256;42.154;23.002;2023-05-07T02:52:42;8.40;;;6.60;;
36629;SDS011;36256;42.154;23.002;2023-05-07T02:55:08;9.60;;;6.63;;
36629;SDS011;36256;42.154;23.002;2023-05-07T02:57:35;8.00;;;6.85;;
36629;SDS011;36256;42.154;23.002;2023-05-07T03:00:14;8.38;;;6.68;;
36629;SDS011;36256;42.154;23.002;2023-05-07T03:02:43;8.02;;;6.28;;
36629;SDS011;36256;42.154;23.002;2023-05-07T03:05:13;7.93;;;6.18;;
36629;SDS011;36256;42.154;23.002;2023-05-07T03:07:40;8.30;;;6.10;;
36629;SDS011;36256;42.154;23.002;2023-05-07T03:10:11;11.50;;;7.13;;
36629;SDS011;36256;42.154;23.002;2023-05-07T03:12:38;13.00;;;6.53;;
36629;SDS011;36256;42.154;23.002;2023-05-07T03:15:05;11.07;;;7.53;;
36629;SDS011;36256;42.154;23.002;2023-05-07T03:17:32;9.88;;;7.32;;
36629;SDS011;36256;42.154;23.002;2023-05-07T03:19:59;8.25;;;6.60;;
36629;SDS011;36256;42.154;23.002;2023-05-07T03:22:26;8.82;;;6.65;;
36629;SDS011;36256;42.154;23.002;2023-05-07T03:24:52;8.00;;;6.38;;
36629;SDS011;36256;42.154;23.002;2023-05-07T03:27:19;10.13;;;6.35;;
36629;SDS011;36256;42.154;23.002;2023-05-07T03:29:46;11.50;;;7.25;;
36629;SDS011;36256;42.154;23.002;2023-05-07T03:32:12;8.57;;;6.85;;
36629;SDS011;36256;42.154;23.002;2023-05-07T03:34:39;10.93;;;6.65;;
36629;SDS011;36256;42.154;23.002;2023-05-07T03:37:06;11.15;;;8.70;;
36629;SDS011;36256;42.154;23.002;2023-05-07T03:39:32;10.03;;;7.10;;
36629;SDS011;36256;42.154;23.002;2023-05-07T03:41:59;9.68;;;7.53;;
36629;SDS011;36256;42.154;23.002;2023-05-07T03:44:27;9.85;;;6.70;;
36629;SDS011;36256;42.154;23.002;2023-05-07T03:46:53;8.02;;;6.95;;
36629;SDS011;36256;42.154;23.002;2023-05-07T03:49:21;9.73;;;6.97;;
36629;SDS011;36256;42.154;23.002;2023-05-07T03:51:48;9.13;;;6.70;;
36629;SDS011;36256;42.154;23.002;2023-05-07T03:54:14;8.10;;;6.60;;
36629;SDS011;36256;42.154;23.002;2023-05-07T03:56:41;8.20;;;6.45;;
36629;SDS011;36256;42.154;23.002;2023-05-07T03:59:08;8.97;;;6.83;;
36629;SDS011;36256;42.154;23.002;2023-05-07T04:01:34;11.80;;;6.73;;
36629;SDS011;36256;42.154;23.002;2023-05-07T04:04:01;10.95;;;7.25;;
36629;SDS011;36256;42.154;23.002;2023-05-07T04:06:28;8.68;;;6.97;;
36629;SDS011;36256;42.154;23.002;2023-05-07T04:08:54;9.23;;;6.65;;
36629;SDS011;36256;42.154;23.002;2023-05-07T04:11:21;8.02;;;6.68;;
36629;SDS011;36256;42.154;23.002;2023-05-07T04:13:48;10.68;;;7.43;;
36629;SDS011;36256;42.154;23.002;2023-05-07T04:16:15;12.93;;;7.70;;
36629;SDS011;36256;42.154;23.002;2023-05-07T04:18:41;10.18;;;7.78;;
36629;SDS011;36256;42.154;23.002;2023-05-07T04:21:18;9.63;;;7.88;;
36629;SDS011;36256;42.154;23.002;2023-05-07T04:23:46;12.55;;;7.30;;
36629;SDS011;36256;42.154;23.002;2023-05-07T04:26:13;10.38;;;7.32;;
36629;SDS011;36256;42.154;23.002;2023-05-07T04:28:40;10.00;;;7.30;;
36629;SDS011;36256;42.154;23.002;2023-05-07T04:31:07;8.65;;;7.30;;
36629;SDS011;36256;42.154;23.002;2023-05-07T04:33:34;9.23;;;7.38;;
36629;SDS011;36256;42.154;23.002;2023-05-07T04:36:01;9.95;;;7.15;;
36629;SDS011;36256;42.154;23.002;2023-05-07T04:38:31;11.55;;;7.15;;
36629;SDS011;36256;42.154;23.002;2023-05-07T04:41:02;15.77;;;8.25;;
36629;SDS011;36256;42.154;23.002;2023-05-07T04:43:30;10.27;;;8.25;;
36629;SDS011;36256;42.154;23.002;2023-05-07T04:45:57;10.65;;;7.85;;
36629;SDS011;36256;42.154;23.002;2023-05-07T04:48:23;10.32;;;7.45;;
36629;SDS011;36256;42.154;23.002;2023-05-07T04:50:51;11.80;;;8.60;;
36629;SDS011;36256;42.154;23.002;2023-05-07T04:53:17;9.45;;;7.60;;
36629;SDS011;36256;42.154;23.002;2023-05-07T04:55:44;10.30;;;6.95;;
36629;SDS011;36256;42.154;23.002;2023-05-07T04:58:11;9.35;;;7.28;;
36629;SDS011;36256;42.154;23.002;2023-05-07T05:00:38;10.07;;;7.47;;
36629;SDS011;36256;42.154;23.002;2023-05-07T05:05:33;11.13;;;9.00;;
36629;SDS011;36256;42.154;23.002;2023-05-07T05:08:00;12.13;;;8.60;;
36629;SDS011;36256;42.154;23.002;2023-05-07T05:10:26;13.77;;;8.00;;
36629;SDS011;36256;42.154;23.002;2023-05-07T05:12:54;10.60;;;7.70;;
36629;SDS011;36256;42.154;23.002;2023-05-07T05:15:21;11.20;;;7.68;;
36629;SDS011;36256;42.154;23.002;2023-05-07T05:17:47;10.10;;;7.82;;
36629;SDS011;36256;42.154;23.002;2023-05-07T05:20:14;10.13;;;7.50;;
36629;SDS011;36256;42.154;23.002;2023-05-07T05:22:41;10.20;;;7.68;;
36629;SDS011;36256;42.154;23.002;2023-05-07T05:25:08;8.82;;;7.35;;
36629;SDS011;36256;42.154;23.002;2023-05-07T05:27:35;8.93;;;6.40;;
36629;SDS011;36256;42.154;23.002;2023-05-07T05:30:02;9.70;;;6.85;;
36629;SDS011;36256;42.154;23.002;2023-05-07T05:32:30;9.70;;;6.15;;
36629;SDS011;36256;42.154;23.002;2023-05-07T05:34:56;10.95;;;6.05;;
36629;SDS011;36256;42.154;23.002;2023-05-07T05:37:23;9.93;;;5.93;;
36629;SDS011;36256;42.154;23.002;2023-05-07T05:39:49;8.35;;;5.95;;
36629;SDS011;36256;42.154;23.002;2023-05-07T05:42:16;7.40;;;4.75;;
36629;SDS011;36256;42.154;23.002;2023-05-07T05:44:43;6.65;;;4.82;;
36629;SDS011;36256;42.154;23.002;2023-05-07T05:47:09;6.00;;;4.50;;
36629;SDS011;36256;42.154;23.002;2023-05-07T05:49:36;8.35;;;4.55;;
36629;SDS011;36256;42.154;23.002;2023-05-07T05:52:03;7.18;;;3.97;;
36629;SDS011;36256;42.154;23.002;2023-05-07T05:54:30;4.85;;;4.38;;
36629;SDS011;36256;42.154;23.002;2023-05-07T05:56:56;5.70;;;3.73;;
36629;SDS011;36256;42.154;23.002;2023-05-07T05:59:23;4.70;;;3.80;;
36629;SDS011;36256;42.154;23.002;2023-05-07T06:01:51;5.65;;;3.70;;
36629;SDS011;36256;42.154;23.002;2023-05-07T06:04:17;6.63;;;3.90;;
36629;SDS011;36256;42.154;23.002;2023-05-07T06:06:44;5.45;;;3.38;;
36629;SDS011;36256;42.154;23.002;2023-05-07T06:09:11;5.72;;;3.53;;
36629;SDS011;36256;42.154;23.002;2023-05-07T06:11:37;7.55;;;3.40;;
36629;SDS011;36256;42.154;23.002;2023-05-07T06:16:31;5.90;;;3.28;;
36629;SDS011;36256;42.154;23.002;2023-05-07T06:18:58;5.05;;;3.50;;
36629;SDS011;36256;42.154;23.002;2023-05-07T06:21:24;5.38;;;3.72;;
36629;SDS011;36256;42.154;23.002;2023-05-07T06:23:51;7.35;;;3.50;;
36629;SDS011;36256;42.154;23.002;2023-05-07T06:26:18;4.43;;;3.35;;
36629;SDS011;36256;42.154;23.002;2023-05-07T06:28:45;5.43;;;3.40;;
36629;SDS011;36256;42.154;23.002;2023-05-07T06:31:12;7.78;;;3.80;;
36629;SDS011;36256;42.154;23.002;2023-05-07T06:33:43;6.85;;;3.95;;
36629;SDS011;36256;42.154;23.002;2023-05-07T06:36:11;5.05;;;3.75;;
36629;SDS011;36256;42.154;23.002;2023-05-07T06:38:37;8.07;;;3.70;;
36629;SDS011;36256;42.154;23.002;2023-05-07T06:41:05;15.32;;;3.65;;
36629;SDS011;36256;42.154;23.002;2023-05-07T06:43:33;7.93;;;3.53;;
36629;SDS011;36256;42.154;23.002;2023-05-07T06:46:00;20.48;;;4.63;;
36629;SDS011;36256;42.154;23.002;2023-05-07T06:48:26;10.38;;;4.28;;
36629;SDS011;36256;42.154;23.002;2023-05-07T06:50:53;12.40;;;4.05;;
36629;SDS011;36256;42.154;23.002;2023-05-07T06:53:21;4.93;;;3.97;;
36629;SDS011;36256;42.154;23.002;2023-05-07T06:55:48;6.55;;;3.90;;
36629;SDS011;36256;42.154;23.002;2023-05-07T06:58:15;17.35;;;4.80;;
36629;SDS011;36256;42.154;23.002;2023-05-07T07:00:41;29.17;;;5.28;;
36629;SDS011;36256;42.154;23.002;2023-05-07T07:03:08;19.88;;;4.75;;
36629;SDS011;36256;42.154;23.002;2023-05-07T07:05:35;10.27;;;4.57;;
36629;SDS011;36256;42.154;23.002;2023-05-07T07:08:01;8.98;;;4.22;;
36629;SDS011;36256;42.154;23.002;2023-05-07T07:10:28;11.05;;;4.13;;
36629;SDS011;36256;42.154;23.002;2023-05-07T07:12:55;8.82;;;4.10;;
36629;SDS011;36256;42.154;23.002;2023-05-07T07:15:21;10.73;;;4.40;;
36629;SDS011;36256;42.154;23.002;2023-05-07T07:17:48;9.35;;;4.80;;
36629;SDS011;36256;42.154;23.002;2023-05-07T07:20:15;12.10;;;4.85;;
36629;SDS011;36256;42.154;23.002;2023-05-07T07:22:42;14.13;;;4.90;;
36629;SDS011;36256;42.154;23.002;2023-05-07T07:25:09;13.85;;;5.28;;
36629;SDS011;36256;42.154;23.002;2023-05-07T07:27:37;9.68;;;4.70;;
36629;SDS011;36256;42.154;23.002;2023-05-07T07:30:04;8.85;;;4.90;;
36629;SDS011;36256;42.154;23.002;2023-05-07T07:32:31;12.50;;;4.72;;
36629;SDS011;36256;42.154;23.002;2023-05-07T07:34:59;9.68;;;4.50;;
36629;SDS011;36256;42.154;23.002;2023-05-07T07:37:26;7.82;;;4.55;;
36629;SDS011;36256;42.154;23.002;2023-05-07T07:39:53;8.20;;;4.35;;
36629;SDS011;36256;42.154;23.002;2023-05-07T07:42:19;8.95;;;4.10;;
36629;SDS011;36256;42.154;23.002;2023-05-07T07:44:46;9.48;;;4.43;;
36629;SDS011;36256;42.154;23.002;2023-05-07T07:47:13;6.43;;;4.47;;
36629;SDS011;36256;42.154;23.002;2023-05-07T07:49:40;5.75;;;4.07;;
36629;SDS011;36256;42.154;23.002;2023-05-07T07:52:06;7.97;;;4.28;;
36629;SDS011;36256;42.154;23.002;2023-05-07T07:54:33;7.97;;;3.75;;
36629;SDS011;36256;42.154;23.002;2023-05-07T07:56:59;7.07;;;3.90;;
36629;SDS011;36256;42.154;23.002;2023-05-07T07:59:27;10.05;;;4.20;;
36629;SDS011;36256;42.154;23.002;2023-05-07T08:01:54;8.20;;;4.00;;
36629;SDS011;36256;42.154;23.002;2023-05-07T08:04:23;12.70;;;4.00;;
36629;SDS011;36256;42.154;23.002;2023-05-07T08:06:50;8.55;;;3.70;;
36629;SDS011;36256;42.154;23.002;2023-05-07T08:09:16;6.55;;;3.60;;
36629;SDS011;36256;42.154;23.002;2023-05-07T08:11:43;9.15;;;3.92;;
36629;SDS011;36256;42.154;23.002;2023-05-07T08:14:09;7.82;;;3.42;;
36629;SDS011;36256;42.154;23.002;2023-05-07T08:16:37;7.22;;;3.83;;
36629;SDS011;36256;42.154;23.002;2023-05-07T08:19:04;8.10;;;3.65;;
36629;SDS011;36256;42.154;23.002;2023-05-07T08:21:30;8.93;;;3.72;;
36629;SDS011;36256;42.154;23.002;2023-05-07T08:23:59;7.28;;;3.88;;
36629;SDS011;36256;42.154;23.002;2023-05-07T08:26:26;6.53;;;3.80;;
36629;SDS011;36256;42.154;23.002;2023-05-07T08:28:53;4.72;;;3.47;;
36629;SDS011;36256;42.154;23.002;2023-05-07T08:31:20;5.60;;;3.78;;
36629;SDS011;36256;42.154;23.002;2023-05-07T08:33:46;9.63;;;3.65;;
36629;SDS011;36256;42.154;23.002;2023-05-07T08:36:13;5.45;;;3.60;;
36629;SDS011;36256;42.154;23.002;2023-05-07T08:38:40;11.63;;;3.92;;
36629;SDS011;36256;42.154;23.002;2023-05-07T08:41:11;6.93;;;3.70;;
36629;SDS011;36256;42.154;23.002;2023-05-07T08:43:38;13.73;;;4.10;;
36629;SDS011;36256;42.154;23.002;2023-05-07T08:46:08;6.70;;;3.50;;
36629;SDS011;36256;42.154;23.002;2023-05-07T08:48:36;5.60;;;3.70;;
36629;SDS011;36256;42.154;23.002;2023-05-07T08:51:03;5.85;;;3.60;;
36629;SDS011;36256;42.154;23.002;2023-05-07T08:53:30;5.22;;;3.33;;
36629;SDS011;36256;42.154;23.002;2023-05-07T08:55:57;6.15;;;3.65;;
36629;SDS011;36256;42.154;23.002;2023-05-07T08:58:24;6.15;;;3.63;;
36629;SDS011;36256;42.154;23.002;2023-05-07T09:00:51;5.82;;;3.72;;
36629;SDS011;36256;42.154;23.002;2023-05-07T09:03:19;5.10;;;3.40;;
36629;SDS011;36256;42.154;23.002;2023-05-07T09:05:46;6.22;;;3.50;;
36629;SDS011;36256;42.154;23.002;2023-05-07T09:08:14;5.90;;;3.70;;
36629;SDS011;36256;42.154;23.002;2023-05-07T09:10:42;7.88;;;3.92;;
36629;SDS011;36256;42.154;23.002;2023-05-07T09:13:09;9.98;;;3.97;;
36629;SDS011;36256;42.154;23.002;2023-05-07T09:15:39;6.93;;;3.83;;
36629;SDS011;36256;42.154;23.002;2023-05-07T09:18:06;4.28;;;3.72;;
36629;SDS011;36256;42.154;23.002;2023-05-07T09:22:59;5.65;;;4.00;;
36629;SDS011;36256;42.154;23.002;2023-05-07T09:25:30;6.28;;;4.00;;
36629;SDS011;36256;42.154;23.002;2023-05-07T09:27:58;5.90;;;3.72;;
36629;SDS011;36256;42.154;23.002;2023-05-07T09:30:30;5.72;;;3.55;;
36629;SDS011;36256;42.154;23.002;2023-05-07T09:32:57;7.15;;;3.70;;
36629;SDS011;36256;42.154;23.002;2023-05-07T09:35:25;6.05;;;3.63;;
36629;SDS011;36256;42.154;23.002;2023-05-07T09:37:56;4.90;;;3.47;;
36629;SDS011;36256;42.154;23.002;2023-05-07T09:40:24;7.88;;;4.15;;
36629;SDS011;36256;42.154;23.002;2023-05-07T09:42:56;4.63;;;3.15;;
36629;SDS011;36256;42.154;23.002;2023-05-07T09:45:34;6.25;;;3.47;;
36629;SDS011;36256;42.154;23.002;2023-05-07T09:48:02;13.20;;;3.50;;
36629;SDS011;36256;42.154;23.002;2023-05-07T09:50:40;7.50;;;3.80;;
36629;SDS011;36256;42.154;23.002;2023-05-07T09:53:15;5.28;;;3.58;;
36629;SDS011;36256;42.154;23.002;2023-05-07T09:55:43;4.70;;;3.40;;
36629;SDS011;36256;42.154;23.002;2023-05-07T09:58:12;5.57;;;3.45;;
36629;SDS011;36256;42.154;23.002;2023-05-07T10:00:39;5.30;;;3.70;;
36629;SDS011;36256;42.154;23.002;2023-05-07T10:03:08;7.38;;;3.88;;
36629;SDS011;36256;42.154;23.002;2023-05-07T10:05:36;5.40;;;3.33;;
36629;SDS011;36256;42.154;23.002;2023-05-07T10:08:03;5.82;;;3.80;;
36629;SDS011;36256;42.154;23.002;2023-05-07T10:10:32;6.85;;;3.40;;
36629;SDS011;36256;42.154;23.002;2023-05-07T10:13:00;7.15;;;4.00;;
36629;SDS011;36256;42.154;23.002;2023-05-07T10:15:28;7.70;;;3.78;;
36629;SDS011;36256;42.154;23.002;2023-05-07T10:17:55;4.40;;;3.47;;
36629;SDS011;36256;42.154;23.002;2023-05-07T10:20:23;4.88;;;3.70;;
36629;SDS011;36256;42.154;23.002;2023-05-07T10:22:51;3.70;;;3.30;;
36629;SDS011;36256;42.154;23.002;2023-05-07T10:25:21;8.02;;;3.92;;
36629;SDS011;36256;42.154;23.002;2023-05-07T10:27:51;5.15;;;3.60;;
36629;SDS011;36256;42.154;23.002;2023-05-07T10:33:04;4.88;;;3.40;;
36629;SDS011;36256;42.154;23.002;2023-05-07T10:35:40;6.03;;;3.55;;
36629;SDS011;36256;42.154;23.002;2023-05-07T10:38:09;6.03;;;3.60;;
36629;SDS011;36256;42.154;23.002;2023-05-07T10:40:36;4.25;;;3.30;;
36629;SDS011;36256;42.154;23.002;2023-05-07T10:43:04;8.25;;;3.60;;
36629;SDS011;36256;42.154;23.002;2023-05-07T10:45:35;4.95;;;3.05;;
36629;SDS011;36256;42.154;23.002;2023-05-07T10:50:46;5.72;;;3.35;;
36629;SDS011;36256;42.154;23.002;2023-05-07T10:58:35;5.18;;;3.50;;
36629;SDS011;36256;42.154;23.002;2023-05-07T11:01:03;5.80;;;3.33;;
36629;SDS011;36256;42.154;23.002;2023-05-07T11:03:30;4.97;;;3.65;;
36629;SDS011;36256;42.154;23.002;2023-05-07T11:06:10;6.65;;;3.85;;
36629;SDS011;36256;42.154;23.002;2023-05-07T11:08:57;5.88;;;3.72;;
36629;SDS011;36256;42.154;23.002;2023-05-07T11:17:07;6.88;;;3.45;;
36629;SDS011;36256;42.154;23.002;2023-05-07T11:19:50;15.30;;;3.42;;
36629;SDS011;36256;42.154;23.002;2023-05-07T11:22:51;6.60;;;3.78;;
36629;SDS011;36256;42.154;23.002;2023-05-07T11:25:10;7.70;;;3.85;;
36629;SDS011;36256;42.154;23.002;2023-05-07T11:27:44;3.72;;;3.42;;
36629;SDS011;36256;42.154;23.002;2023-05-07T11:30:16;4.65;;;3.67;;
36629;SDS011;36256;42.154;23.002;2023-05-07T11:32:46;5.18;;;3.90;;
36629;SDS011;36256;42.154;23.002;2023-05-07T11:35:14;4.65;;;3.40;;
36629;SDS011;36256;42.154;23.002;2023-05-07T11:37:42;5.25;;;3.80;;
36629;SDS011;36256;42.154;23.002;2023-05-07T11:40:11;4.72;;;3.80;;
36629;SDS011;36256;42.154;23.002;2023-05-07T11:42:40;6.15;;;3.50;;
36629;SDS011;36256;42.154;23.002;2023-05-07T11:45:09;5.10;;;3.40;;
36629;SDS011;36256;42.154;23.002;2023-05-07T11:47:36;3.80;;;3.50;;
36629;SDS011;36256;42.154;23.002;2023-05-07T11:50:06;4.05;;;3.58;;
36629;SDS011;36256;42.154;23.002;2023-05-07T11:52:34;3.88;;;2.83;;
36629;SDS011;36256;42.154;23.002;2023-05-07T11:55:02;4.93;;;3.38;;
36629;SDS011;36256;42.154;23.002;2023-05-07T11:57:32;3.85;;;3.33;;
36629;SDS011;36256;42.154;23.002;2023-05-07T12:02:28;3.45;;;3.10;;
36629;SDS011;36256;42.154;23.002;2023-05-07T12:04:54;4.63;;;3.00;;
36629;SDS011;36256;42.154;23.002;2023-05-07T12:07:22;5.35;;;3.05;;
36629;SDS011;36256;42.154;23.002;2023-05-07T12:09:50;5.38;;;3.13;;
36629;SDS011;36256;42.154;23.002;2023-05-07T12:12:16;4.28;;;3.28;;
36629;SDS011;36256;42.154;23.002;2023-05-07T12:14:44;3.45;;;3.08;;
36629;SDS011;36256;42.154;23.002;2023-05-07T12:17:12;3.88;;;3.50;;
36629;SDS011;36256;42.154;23.002;2023-05-07T12:19:41;3.92;;;3.00;;
36629;SDS011;36256;42.154;23.002;2023-05-07T12:22:09;4.43;;;2.80;;
36629;SDS011;36256;42.154;23.002;2023-05-07T12:24:47;4.00;;;3.08;;
36629;SDS011;36256;42.154;23.002;2023-05-07T12:27:15;6.50;;;3.38;;
36629;SDS011;36256;42.154;23.002;2023-05-07T12:29:46;3.80;;;3.05;;
36629;SDS011;36256;42.154;23.002;2023-05-07T12:32:14;9.80;;;3.67;;
36629;SDS011;36256;42.154;23.002;2023-05-07T12:34:42;6.50;;;3.78;;
36629;SDS011;36256;42.154;23.002;2023-05-07T12:37:11;4.40;;;3.38;;
36629;SDS011;36256;42.154;23.002;2023-05-07T12:39:44;8.38;;;3.60;;
36629;SDS011;36256;42.154;23.002;2023-05-07T12:42:15;5.95;;;3.85;;
36629;SDS011;36256;42.154;23.002;2023-05-07T12:44:44;5.47;;;3.70;;
36629;SDS011;36256;42.154;23.002;2023-05-07T12:47:12;5.57;;;3.60;;
36629;SDS011;36256;42.154;23.002;2023-05-07T12:49:39;6.38;;;3.10;;
36629;SDS011;36256;42.154;23.002;2023-05-07T12:52:07;5.05;;;3.47;;
36629;SDS011;36256;42.154;23.002;2023-05-07T12:54:35;4.82;;;3.38;;
36629;SDS011;36256;42.154;23.002;2023-05-07T12:57:07;6.38;;;3.40;;
36629;SDS011;36256;42.154;23.002;2023-05-07T12:59:41;5.20;;;3.53;;
36629;SDS011;36256;42.154;23.002;2023-05-07T13:02:08;5.97;;;3.47;;
36629;SDS011;36256;42.154;23.002;2023-05-07T13:04:36;4.50;;;3.30;;
36629;SDS011;36256;42.154;23.002;2023-05-07T13:07:02;8.90;;;3.50;;
36629;SDS011;36256;42.154;23.002;2023-05-07T13:09:29;5.85;;;3.72;;
36629;SDS011;36256;42.154;23.002;2023-05-07T13:11:57;4.47;;;3.53;;
36629;SDS011;36256;42.154;23.002;2023-05-07T13:14:27;4.55;;;3.35;;
36629;SDS011;36256;42.154;23.002;2023-05-07T13:16:54;4.72;;;3.47;;
36629;SDS011;36256;42.154;23.002;2023-05-07T13:19:21;7.05;;;3.25;;
36629;SDS011;36256;42.154;23.002;2023-05-07T13:21:47;4.78;;;3.50;;
36629;SDS011;36256;42.154;23.002;2023-05-07T13:24:15;20.77;;;4.40;;
36629;SDS011;36256;42.154;23.002;2023-05-07T13:26:42;6.40;;;3.40;;
36629;SDS011;36256;42.154;23.002;2023-05-07T13:29:14;7.18;;;3.30;;
36629;SDS011;36256;42.154;23.002;2023-05-07T13:31:41;5.70;;;3.50;;
36629;SDS011;36256;42.154;23.002;2023-05-07T13:34:10;4.68;;;3.45;;
36629;SDS011;36256;42.154;23.002;2023-05-07T13:36:38;5.60;;;3.28;;
36629;SDS011;36256;42.154;23.002;2023-05-07T13:39:06;9.80;;;3.90;;
36629;SDS011;36256;42.154;23.002;2023-05-07T13:41:32;7.18;;;3.33;;
36629;SDS011;36256;42.154;23.002;2023-05-07T13:43:59;4.30;;;3.13;;
36629;SDS011;36256;42.154;23.002;2023-05-07T13:46:26;6.25;;;3.70;;
36629;SDS011;36256;42.154;23.002;2023-05-07T13:51:20;7.80;;;3.75;;
36629;SDS011;36256;42.154;23.002;2023-05-07T13:53:46;4.93;;;3.85;;
36629;SDS011;36256;42.154;23.002;2023-05-07T14:01:24;5.15;;;3.67;;
36629;SDS011;36256;42.154;23.002;2023-05-07T14:03:51;3.90;;;3.53;;
36629;SDS011;36256;42.154;23.002;2023-05-07T14:06:18;6.70;;;3.70;;
36629;SDS011;36256;42.154;23.002;2023-05-07T14:08:46;4.60;;;3.65;;
36629;SDS011;36256;42.154;23.002;2023-05-07T14:11:12;5.97;;;3.88;;
36629;SDS011;36256;42.154;23.002;2023-05-07T14:13:39;3.35;;;3.05;;
36629;SDS011;36256;42.154;23.002;2023-05-07T14:16:06;5.88;;;3.53;;
36629;SDS011;36256;42.154;23.002;2023-05-07T14:18:33;4.03;;;3.10;;
36629;SDS011;36256;42.154;23.002;2023-05-07T14:21:00;7.10;;;3.65;;
36629;SDS011;36256;42.154;23.002;2023-05-07T14:23:27;4.57;;;3.38;;
36629;SDS011;36256;42.154;23.002;2023-05-07T14:25:54;4.05;;;3.60;;
36629;SDS011;36256;42.154;23.002;2023-05-07T14:28:20;6.82;;;3.50;;
36629;SDS011;36256;42.154;23.002;2023-05-07T14:30:47;7.85;;;4.00;;
36629;SDS011;36256;42.154;23.002;2023-05-07T14:33:14;3.85;;;3.45;;
36629;SDS011;36256;42.154;23.002;2023-05-07T14:35:41;4.38;;;3.72;;
36629;SDS011;36256;42.154;23.002;2023-05-07T14:38:07;4.03;;;3.60;;
36629;SDS011;36256;42.154;23.002;2023-05-07T14:40:34;4.85;;;3.42;;
36629;SDS011;36256;42.154;23.002;2023-05-07T14:43:00;5.03;;;3.42;;
36629;SDS011;36256;42.154;23.002;2023-05-07T14:45:27;10.50;;;4.82;;
36629;SDS011;36256;42.154;23.002;2023-05-07T14:47:54;6.60;;;4.68;;
36629;SDS011;36256;42.154;23.002;2023-05-07T14:50:21;4.28;;;3.85;;
36629;SDS011;36256;42.154;23.002;2023-05-07T14:52:48;18.20;;;3.97;;
36629;SDS011;36256;42.154;23.002;2023-05-07T14:55:15;7.65;;;4.10;;
36629;SDS011;36256;42.154;23.002;2023-05-07T14:57:41;7.25;;;4.03;;
36629;SDS011;36256;42.154;23.002;2023-05-07T15:00:08;6.18;;;3.78;;
36629;SDS011;36256;42.154;23.002;2023-05-07T15:02:36;5.05;;;3.55;;
36629;SDS011;36256;42.154;23.002;2023-05-07T15:05:03;7.05;;;4.00;;
36629;SDS011;36256;42.154;23.002;2023-05-07T15:07:30;7.93;;;3.95;;
36629;SDS011;36256;42.154;23.002;2023-05-07T15:09:58;5.18;;;3.50;;